Time;durP1;ratioP1;P1;durP2;ratioP2;P2;SDS_P1;SDS_P2;PMS_P1;PMS_P2;Temp;Humidity;BMP_temperature;BMP_pressure;BME280_temperature;BME280_humidity;BME280_pressure;Samples;Min_cycle;Max_cycle;Signal;HPM_P1;HPM_P2
2021/03/03 00:02:11;;;;;;;11.57;3.08;;;23.80;63.90;;;;;;4991336;28;20034;-52
2021/03/03 00:04:39;;;;;;;20.17;3.67;;;23.90;61.60;;;;;;4991303;28;20050;-49
2021/03/03 00:07:06;;;;;;;16.08;3.83;;;23.90;62.30;;;;;;4991761;28;20030;-50
2021/03/03 00:09:33;;;;;;;17.35;3.28;;;23.90;62.90;;;;;;4990906;28;20018;-46
2021/03/03 00:12:01;;;;;;;22.10;5.60;;;23.90;62.50;;;;;;4991211;28;20499;-44
2021/03/03 00:14:28;;;;;;;18.00;3.22;;;24.00;61.90;;;;;;4991476;28;20133;-57
2021/03/03 00:16:55;;;;;;;12.77;3.08;;;24.00;61.40;;;;;;4991409;28;20070;-49
2021/03/03 00:19:23;;;;;;;16.02;2.83;;;24.00;60.70;;;;;;4991219;28;20497;-54
2021/03/03 00:21:50;;;;;;;16.95;3.25;;;24.10;61.50;;;;;;4991854;28;20061;-54
2021/03/03 00:24:18;;;;;;;18.85;3.03;;;24.10;60.70;;;;;;4994766;28;20034;-56
2021/03/03 00:26:45;;;;;;;12.48;2.63;;;24.20;60.40;;;;;;4994968;28;20465;-56
2021/03/03 00:29:12;;;;;;;14.38;3.83;;;24.20;60.50;;;;;;4994798;28;20041;-52
2021/03/03 00:31:40;;;;;;;21.23;3.53;;;24.20;60.40;;;;;;4994523;28;20030;-50
2021/03/03 00:34:07;;;;;;;10.43;2.90;;;24.20;61.30;;;;;;5009301;28;20034;-53
2021/03/03 00:36:34;;;;;;;14.93;2.95;;;24.20;61.50;;;;;;4995144;28;20023;-45
2021/03/03 00:39:02;;;;;;;14.05;3.13;;;24.20;61.70;;;;;;4994922;28;20036;-54
2021/03/03 00:41:30;;;;;;;16.05;2.92;;;24.30;61.40;;;;;;4994844;28;20019;-55
2021/03/03 00:43:57;;;;;;;16.92;3.15;;;24.30;59.90;;;;;;4994729;28;20081;-57
2021/03/03 00:46:24;;;;;;;10.73;2.72;;;24.30;59.10;;;;;;4994579;28;20030;-49
2021/03/03 00:48:52;;;;;;;13.73;2.58;;;24.30;60.20;;;;;;4994602;28;20112;-45
2021/03/03 00:51:19;;;;;;;11.23;2.38;;;24.20;59.30;;;;;;4994678;28;20057;-51
2021/03/03 00:53:47;;;;;;;11.52;2.17;;;24.30;59.70;;;;;;4994315;28;20088;-47
2021/03/03 00:56:14;;;;;;;8.90;2.38;;;24.30;59.90;;;;;;4994572;28;20113;-47
2021/03/03 00:58:42;;;;;;;13.43;2.83;;;24.30;60.00;;;;;;4994521;28;20034;-49
2021/03/03 01:01:09;;;;;;;14.75;2.67;;;24.30;60.90;;;;;;4994391;28;20022;-46
2021/03/03 01:03:36;;;;;;;14.40;2.25;;;24.40;60.50;;;;;;4994880;28;20053;-53
2021/03/03 01:06:04;;;;;;;23.52;2.65;;;24.30;60.20;;;;;;4986332;28;20054;-42
2021/03/03 01:08:32;;;;;;;9.88;2.33;;;24.30;59.30;;;;;;4992712;28;20038;-51
2021/03/03 01:10:59;;;;;;;14.38;3.40;;;24.40;60.40;;;;;;4992487;28;20038;-50
2021/03/03 01:13:26;;;;;;;17.55;3.50;;;24.40;58.30;;;;;;5008676;28;20041;-50
2021/03/03 01:15:54;;;;;;;10.20;3.13;;;24.40;60.10;;;;;;5002470;28;20108;-48
2021/03/03 01:18:21;;;;;;;8.65;2.40;;;24.40;59.50;;;;;;4992392;28;20046;-55
2021/03/03 01:20:49;;;;;;;9.90;2.70;;;24.50;59.80;;;;;;4992443;28;20384;-55
2021/03/03 01:23:17;;;;;;;8.73;2.55;;;24.50;59.90;;;;;;4991843;28;20066;-50
2021/03/03 01:25:44;;;;;;;8.93;2.65;;;24.50;60.00;;;;;;4991549;28;20510;-53
2021/03/03 01:28:12;;;;;;;12.68;3.00;;;24.60;59.80;;;;;;4992801;28;20177;-55
2021/03/03 01:30:39;;;;;;;16.15;3.28;;;24.60;59.40;;;;;;4991073;28;20041;-53
2021/03/03 01:33:07;;;;;;;14.20;3.05;;;24.70;59.60;;;;;;4989636;28;20077;-52
2021/03/03 01:35:34;;;;;;;16.77;2.83;;;24.80;59.80;;;;;;4988554;28;20500;-52
2021/03/03 01:38:02;;;;;;;15.10;2.03;;;24.80;59.60;;;;;;4991188;28;20035;-55
2021/03/03 01:40:29;;;;;;;12.68;2.42;;;24.90;59.40;;;;;;4988728;28;20030;-61
2021/03/03 01:42:57;;;;;;;5.78;1.98;;;24.90;59.40;;;;;;4991041;28;20034;-59
2021/03/03 01:45:24;;;;;;;8.18;2.05;;;24.90;59.70;;;;;;4986794;28;20037;-56
2021/03/03 01:47:51;;;;;;;16.08;2.95;;;25.00;58.90;;;;;;4996927;28;20109;-53
2021/03/03 01:50:19;;;;;;;10.40;2.97;;;25.10;59.20;;;;;;4992019;28;20037;-59
2021/03/03 01:52:46;;;;;;;10.32;3.13;;;25.10;59.00;;;;;;4993692;28;20031;-53
2021/03/03 01:55:14;;;;;;;8.35;2.45;;;25.20;59.20;;;;;;4987241;28;20034;-52
2021/03/03 01:57:42;;;;;;;19.92;2.40;;;25.20;59.10;;;;;;4993580;28;20077;-54
2021/03/03 02:00:10;;;;;;;12.30;3.00;;;25.30;59.30;;;;;;4992093;28;20528;-49
2021/03/03 02:02:37;;;;;;;12.20;2.28;;;25.40;59.40;;;;;;4991831;28;20049;-57
2021/03/03 02:05:05;;;;;;;7.80;2.80;;;25.50;58.90;;;;;;4986943;28;20504;-59
2021/03/03 02:07:49;;;;;;;19.13;2.47;;;25.60;59.10;;;;;;4992572;28;20033;-55
2021/03/03 02:10:46;;;;;;;11.50;2.38;;;25.70;59.20;;;;;;4992114;28;20360;-57
2021/03/03 02:13:31;;;;;;;17.25;2.92;;;25.70;58.80;;;;;;4984780;28;20112;-60
2021/03/03 02:16:02;;;;;;;8.65;2.72;;;25.70;58.40;;;;;;4991511;28;20033;-56
2021/03/03 02:18:33;;;;;;;11.98;2.72;;;25.70;58.70;;;;;;4991332;28;20031;-59
2021/03/03 02:21:08;;;;;;;;;;;25.70;58.60;;;;;;4991761;28;21217;-54
2021/03/03 02:23:53;;;;;;;6.63;2.10;;;25.70;58.80;;;;;;4991345;28;19918;-53
2021/03/03 02:26:22;;;;;;;13.57;3.22;;;25.70;59.30;;;;;;4990071;28;20121;-56
2021/03/03 02:28:50;;;;;;;9.68;2.35;;;25.70;59.30;;;;;;5004071;28;20480;-52
2021/03/03 02:31:21;;;;;;;8.52;1.90;;;25.60;59.50;;;;;;5000498;28;20056;-55
2021/03/03 02:33:48;;;;;;;10.82;2.30;;;25.60;59.20;;;;;;4993771;28;20026;-54
2021/03/03 02:36:17;;;;;;;6.70;2.22;;;25.60;59.20;;;;;;4987717;28;20033;-58
2021/03/03 02:38:45;;;;;;;10.27;2.17;;;25.60;60.00;;;;;;4991957;28;20029;-58
2021/03/03 02:41:17;;;;;;;7.93;2.28;;;25.60;59.90;;;;;;4991482;28;20102;-59
2021/03/03 02:43:44;;;;;;;;;;;25.60;60.20;;;;;;4992228;28;20366;-57
2021/03/03 02:46:11;;;;;;;8.50;2.17;;;25.60;60.10;;;;;;4982111;28;20513;-59
2021/03/03 02:48:39;;;;;;;8.85;2.40;;;25.60;60.30;;;;;;4991367;28;20041;-58
2021/03/03 02:51:08;;;;;;;8.55;2.60;;;25.60;59.30;;;;;;4990953;28;20057;-53
2021/03/03 02:53:35;;;;;;;7.63;2.28;;;25.60;60.80;;;;;;4991038;28;20476;-59
2021/03/03 02:56:02;;;;;;;7.00;2.13;;;25.60;60.20;;;;;;4986582;28;20034;-55
2021/03/03 02:58:30;;;;;;;10.35;2.65;;;25.60;60.20;;;;;;4991453;28;20030;-50
2021/03/03 03:01:00;;;;;;;8.05;2.70;;;25.60;60.50;;;;;;4990772;28;20022;-58
2021/03/03 03:03:52;;;;;;;6.32;1.70;;;25.60;60.50;;;;;;4990852;28;20488;-63
2021/03/03 03:06:26;;;;;;;6.78;2.10;;;25.60;59.80;;;;;;4990350;28;20030;-56
2021/03/03 03:09:00;;;;;;;6.38;2.00;;;25.70;60.50;;;;;;4987883;28;20105;-60
2021/03/03 03:11:31;;;;;;;9.82;2.50;;;25.70;60.40;;;;;;4990867;28;20038;-57
2021/03/03 03:14:10;;;;;;;6.78;2.13;;;25.70;60.30;;;;;;4992987;28;20544;-61
2021/03/03 03:16:40;;;;;;;8.40;2.40;;;25.80;60.50;;;;;;4991765;28;20432;-67
2021/03/03 03:19:12;;;;;;;8.80;2.00;;;25.80;60.50;;;;;;4991406;28;20307;-60
2021/03/03 03:21:44;;;;;;;9.90;2.15;;;25.80;60.40;;;;;;4991426;28;20043;-61
2021/03/03 03:24:13;;;;;;;9.38;2.05;;;25.80;60.00;;;;;;4992649;28;20026;-56
2021/03/03 03:26:42;;;;;;;8.98;2.17;;;25.90;60.00;;;;;;5007228;28;20070;-63
2021/03/03 03:29:10;;;;;;;11.32;2.55;;;25.90;59.90;;;;;;4992193;28;20027;-64
2021/03/03 03:31:39;;;;;;;9.55;2.00;;;26.00;59.70;;;;;;4992137;28;20027;-60
2021/03/03 03:34:08;;;;;;;16.45;1.75;;;26.00;59.90;;;;;;4991924;28;20337;-52
2021/03/03 03:36:37;;;;;;;7.57;2.10;;;26.00;59.30;;;;;;4990830;28;20062;-57
2021/03/03 03:39:08;;;;;;;6.30;2.33;;;26.10;59.90;;;;;;4990986;28;20115;-62
2021/03/03 03:41:37;;;;;;;6.38;2.22;;;26.20;60.30;;;;;;4992082;28;20460;-54
2021/03/03 03:44:11;;;;;;;10.25;2.13;;;26.20;59.90;;;;;;4992364;28;20030;-54
2021/03/03 03:46:42;;;;;;;12.75;2.72;;;26.20;58.20;;;;;;4991619;28;20030;-59
2021/03/03 03:49:11;;;;;;;6.80;2.13;;;26.30;59.80;;;;;;4992064;28;20022;-64
2021/03/03 03:51:41;;;;;;;7.00;2.33;;;26.20;59.10;;;;;;4991410;28;20035;-65
2021/03/03 03:54:10;;;;;;;9.38;2.13;;;26.30;58.80;;;;;;4981940;28;20070;-54
2021/03/03 03:56:40;;;;;;;5.65;2.25;;;26.30;59.70;;;;;;4990905;28;20027;-54
2021/03/03 03:59:08;;;;;;;5.95;1.75;;;26.30;59.20;;;;;;4994081;28;20088;-53
2021/03/03 04:01:35;;;;;;;6.60;1.83;;;26.30;58.90;;;;;;4993659;28;20038;-53
2021/03/03 04:04:03;;;;;;;6.03;1.80;;;26.30;60.30;;;;;;4993194;28;20085;-53
2021/03/03 04:06:30;;;;;;;4.55;1.70;;;26.30;60.20;;;;;;4993323;28;20489;-51
2021/03/03 04:08:57;;;;;;;5.80;1.50;;;26.30;60.40;;;;;;5003099;28;20527;-55
2021/03/03 04:11:25;;;;;;;5.25;1.90;;;26.40;60.80;;;;;;4998981;28;20034;-54
2021/03/03 04:13:52;;;;;;;11.82;2.95;;;26.40;60.50;;;;;;4992997;28;20042;-53
2021/03/03 04:16:19;;;;;;;5.93;2.22;;;26.40;58.50;;;;;;4989586;28;20019;-57
2021/03/03 04:18:47;;;;;;;4.35;1.30;;;26.40;58.70;;;;;;4992022;28;20465;-57
2021/03/03 04:21:14;;;;;;;5.60;2.30;;;26.40;58.00;;;;;;4992938;28;20034;-48
2021/03/03 04:23:42;;;;;;;4.50;1.40;;;26.40;57.70;;;;;;4992274;28;20046;-56
2021/03/03 04:26:09;;;;;;;6.63;2.00;;;26.50;58.70;;;;;;4990982;28;20027;-55
2021/03/03 04:28:37;;;;;;;6.00;1.58;;;26.50;58.90;;;;;;5006309;28;20034;-54
2021/03/03 04:31:04;;;;;;;6.72;1.65;;;26.50;59.00;;;;;;5001482;28;20026;-51
2021/03/03 04:33:32;;;;;;;3.85;1.67;;;26.50;57.90;;;;;;4995066;28;20046;-52
2021/03/03 04:35:59;;;;;;;7.90;2.25;;;26.50;60.10;;;;;;4991581;28;20114;-56
2021/03/03 04:38:27;;;;;;;6.68;1.90;;;26.40;59.70;;;;;;4991985;28;20496;-55
2021/03/03 04:40:54;;;;;;;6.75;1.85;;;26.40;59.90;;;;;;4992931;28;20057;-56
2021/03/03 04:43:21;;;;;;;6.38;1.90;;;26.40;58.80;;;;;;4993937;28;20037;-55
2021/03/03 04:45:49;;;;;;;8.05;1.92;;;26.40;58.60;;;;;;4989603;28;20026;-55
2021/03/03 04:48:16;;;;;;;3.95;1.20;;;26.40;60.10;;;;;;4992769;28;20027;-60
2021/03/03 04:50:43;;;;;;;4.63;1.80;;;26.40;60.40;;;;;;4992526;28;20053;-54
2021/03/03 04:53:11;;;;;;;9.60;2.78;;;26.40;60.00;;;;;;4991771;28;20031;-56
2021/03/03 04:55:38;;;;;;;14.45;2.03;;;26.00;53.00;;;;;;5004412;28;20026;-55
2021/03/03 04:58:06;;;;;;;12.45;2.30;;;25.30;57.50;;;;;;4992625;28;20018;-51
2021/03/03 05:00:34;;;;;;;9.35;2.47;;;25.30;55.60;;;;;;4992622;28;20064;-52
2021/03/03 05:03:03;;;;;;;10.52;2.67;;;25.60;59.20;;;;;;4991985;28;20038;-57
2021/03/03 05:05:30;;;;;;;10.80;2.90;;;25.30;60.70;;;;;;4988388;28;20076;-59
2021/03/03 05:07:57;;;;;;;12.52;2.75;;;25.20;58.50;;;;;;4991451;28;20027;-56
2021/03/03 05:10:25;;;;;;;9.02;1.90;;;25.40;54.30;;;;;;4993205;28;20119;-58
2021/03/03 05:12:52;;;;;;;20.38;3.97;;;25.20;54.70;;;;;;4993950;28;20100;-62
2021/03/03 05:15:20;;;;;;;16.25;3.08;;;24.90;59.20;;;;;;4993995;28;20030;-62
2021/03/03 05:17:47;;;;;;;12.90;3.13;;;25.00;56.40;;;;;;4993724;28;20105;-61
2021/03/03 05:20:15;;;;;;;13.20;2.88;;;25.10;57.00;;;;;;4990986;28;20030;-56
2021/03/03 05:22:42;;;;;;;12.68;2.13;;;25.10;56.70;;;;;;4993441;28;20080;-55
2021/03/03 05:25:10;;;;;;;12.88;2.65;;;25.10;54.10;;;;;;4993605;28;20030;-61
2021/03/03 05:27:37;;;;;;;9.30;2.40;;;25.30;54.60;;;;;;4993493;28;20105;-54
2021/03/03 05:30:06;;;;;;;9.43;2.22;;;25.20;58.90;;;;;;4993663;28;20480;-58
2021/03/03 05:32:33;;;;;;;8.93;2.38;;;24.90;58.40;;;;;;4993626;28;20058;-57
2021/03/03 05:35:01;;;;;;;10.25;2.17;;;25.00;62.30;;;;;;4993017;28;20477;-55
2021/03/03 05:37:28;;;;;;;8.25;2.70;;;24.90;57.10;;;;;;4992564;28;20030;-56
2021/03/03 05:39:55;;;;;;;6.65;1.80;;;25.10;60.40;;;;;;4993488;28;20031;-61
2021/03/03 05:42:23;;;;;;;12.10;2.75;;;24.90;59.20;;;;;;4992870;28;20022;-55
2021/03/03 05:44:52;;;;;;;9.57;2.35;;;24.90;56.40;;;;;;4993008;28;20022;-59
2021/03/03 05:47:20;;;;;;;8.00;1.92;;;24.90;58.20;;;;;;4993363;28;20096;-57
2021/03/03 05:49:51;;;;;;;6.30;2.15;;;25.00;61.60;;;;;;4991615;28;20057;-54
2021/03/03 05:52:20;;;;;;;7.72;1.75;;;25.00;57.70;;;;;;4993516;28;20465;-53
2021/03/03 05:54:48;;;;;;;10.68;2.13;;;25.20;61.40;;;;;;4991973;28;20053;-55
2021/03/03 05:57:17;;;;;;;11.43;1.95;;;25.40;58.40;;;;;;4993880;28;20034;-50
2021/03/03 05:59:45;;;;;;;7.93;2.22;;;25.50;58.10;;;;;;4993456;28;20033;-45
2021/03/03 06:02:20;;;;;;;24.02;3.05;;;25.60;57.20;;;;;;4993051;28;20459;-48
2021/03/03 06:04:49;;;;;;;10.38;3.03;;;25.60;56.90;;;;;;4992298;28;20541;-48
2021/03/03 06:07:17;;;;;;;18.35;2.50;;;25.60;57.00;;;;;;4990821;28;20044;-47
2021/03/03 06:09:44;;;;;;;15.75;2.85;;;25.60;56.20;;;;;;4992423;28;20110;-46
2021/03/03 06:12:12;;;;;;;15.43;2.70;;;25.70;57.50;;;;;;4993027;28;20105;-51
2021/03/03 06:14:40;;;;;;;12.95;2.70;;;25.70;57.00;;;;;;4993431;28;20528;-54
2021/03/03 06:17:08;;;;;;;12.90;2.72;;;25.80;57.10;;;;;;4992837;28;20062;-50
2021/03/03 06:19:36;;;;;;;11.07;2.47;;;25.80;57.50;;;;;;4991743;28;20030;-50
2021/03/03 06:22:30;;;;;;;11.95;2.90;;;25.90;58.60;;;;;;4992283;28;20054;-44
2021/03/03 06:24:58;;;;;;;17.67;3.00;;;25.90;57.10;;;;;;4994211;28;20088;-54
2021/03/03 06:27:37;;;;;;;12.73;2.60;;;26.00;59.00;;;;;;4992882;28;20109;-52
2021/03/03 06:30:17;;;;;;;14.15;2.67;;;26.00;59.50;;;;;;4992773;28;20125;-54
2021/03/03 06:33:09;;;;;;;9.00;2.40;;;25.90;59.40;;;;;;4991188;28;20113;-62
2021/03/03 06:35:49;;;;;;;30.80;3.80;;;26.00;60.40;;;;;;4992538;28;20180;-55
2021/03/03 06:38:24;;;;;;;16.95;2.33;;;25.90;59.80;;;;;;4990527;28;20031;-51
2021/03/03 06:41:06;;;;;;;9.50;2.22;;;25.90;59.40;;;;;;4992529;28;20392;-56
2021/03/03 06:43:33;;;;;;;13.77;2.10;;;25.90;59.80;;;;;;4992146;28;20085;-57
2021/03/03 06:46:19;;;;;;;13.82;2.28;;;25.90;60.50;;;;;;4992496;28;20173;-56
2021/03/03 06:48:47;;;;;;;7.25;2.15;;;25.80;60.00;;;;;;4990923;28;20022;-59
2021/03/03 06:51:41;;;;;;;15.43;2.90;;;25.80;60.00;;;;;;4992183;28;20053;-58
2021/03/03 06:54:19;;;;;;;16.85;2.55;;;25.80;59.90;;;;;;4992475;28;20528;-52
2021/03/03 06:56:48;;;;;;;14.80;3.88;;;25.70;60.20;;;;;;4992662;28;20026;-55
2021/03/03 06:59:24;;;;;;;10.55;2.25;;;25.70;60.40;;;;;;4992105;28;20022;-58
2021/03/03 07:02:00;;;;;;;16.08;2.72;;;25.70;59.70;;;;;;4990902;28;20030;-58
2021/03/03 07:04:35;;;;;;;28.02;3.50;;;25.70;61.30;;;;;;4992471;28;20018;-60
2021/03/03 07:07:04;;;;;;;17.27;2.47;;;25.80;61.70;;;;;;4992292;28;20026;-48
2021/03/03 07:09:42;;;;;;;30.90;3.45;;;25.70;60.50;;;;;;4992691;28;20044;-47
2021/03/03 07:12:15;;;;;;;13.82;2.42;;;25.60;60.40;;;;;;4992723;28;20033;-49
2021/03/03 07:14:44;;;;;;;11.63;2.60;;;25.50;60.60;;;;;;4991702;28;20037;-55
2021/03/03 07:17:21;;;;;;;13.98;2.47;;;25.50;60.10;;;;;;4991765;28;20062;-55
2021/03/03 07:19:50;;;;;;;12.25;2.60;;;25.40;59.80;;;;;;4991803;28;20038;-57
2021/03/03 07:22:29;;;;;;;9.10;2.10;;;25.40;61.00;;;;;;4992000;28;20528;-49
2021/03/03 07:25:07;;;;;;;10.23;2.72;;;25.40;60.80;;;;;;4992531;28;20113;-59
2021/03/03 07:27:36;;;;;;;13.13;2.53;;;25.40;60.60;;;;;;4991351;28;20034;-55
2021/03/03 07:30:15;;;;;;;15.10;2.65;;;25.30;57.90;;;;;;4991824;28;20030;-55
2021/03/03 07:32:43;;;;;;;13.73;2.85;;;25.30;59.20;;;;;;4993797;28;20037;-56
2021/03/03 07:35:12;;;;;;;13.60;2.83;;;25.10;58.90;;;;;;4995691;28;20168;-62
2021/03/03 07:37:41;;;;;;;9.88;2.55;;;25.00;58.50;;;;;;4995830;28;20559;-47
2021/03/03 07:40:12;;;;;;;15.18;2.70;;;25.10;60.20;;;;;;4994650;28;20065;-50
2021/03/03 07:42:40;;;;;;;14.23;2.83;;;25.10;59.90;;;;;;4994689;28;20024;-62
2021/03/03 07:45:17;;;;;;;12.77;2.70;;;25.10;61.80;;;;;;4993934;28;20057;-62
2021/03/03 07:47:44;;;;;;;25.02;3.25;;;25.10;61.70;;;;;;4994836;28;20045;-56
2021/03/03 07:50:19;;;;;;;9.88;2.50;;;25.00;60.50;;;;;;4994796;28;20030;-50
2021/03/03 07:52:54;;;;;;;11.68;2.28;;;24.90;61.80;;;;;;4994822;28;20026;-59
2021/03/03 07:55:23;;;;;;;10.65;2.65;;;24.90;61.60;;;;;;4993956;28;20042;-63
2021/03/03 07:57:53;;;;;;;10.10;2.75;;;24.90;63.60;;;;;;4994647;28;20022;-59
2021/03/03 08:00:28;;;;;;;15.55;2.95;;;24.90;63.70;;;;;;4995027;28;20475;-60
2021/03/03 08:02:56;;;;;;;16.42;4.05;;;24.90;60.50;;;;;;4995518;28;20027;-61
2021/03/03 08:05:29;;;;;;;18.35;4.78;;;24.90;64.20;;;;;;4995568;28;20026;-60
2021/03/03 08:08:12;;;;;;;20.52;4.55;;;24.90;66.00;;;;;;4994850;28;20027;-59
2021/03/03 08:10:41;;;;;;;17.13;6.50;;;24.90;66.80;;;;;;4992419;28;20404;-53
2021/03/03 08:13:10;;;;;;;24.48;8.10;;;25.00;67.70;;;;;;4995204;28;20061;-61
2021/03/03 08:15:56;;;;;;;22.40;4.90;;;24.90;66.30;;;;;;4993375;28;20026;-61
2021/03/03 08:18:27;;;;;;;12.63;4.57;;;24.90;67.90;;;;;;4995449;28;20026;-59
2021/03/03 08:20:58;;;;;;;20.52;4.82;;;25.00;68.20;;;;;;4994691;28;20025;-57
2021/03/03 08:23:34;;;;;;;26.48;4.97;;;25.00;68.80;;;;;;4995079;28;20050;-57
2021/03/03 08:26:17;;;;;;;19.00;6.05;;;25.00;69.10;;;;;;4995087;28;20413;-57
2021/03/03 08:28:51;;;;;;;22.38;5.88;;;25.00;69.60;;;;;;4995250;28;20030;-59
2021/03/03 08:31:20;;;;;;;27.60;7.10;;;25.00;70.00;;;;;;4995492;28;20019;-53
2021/03/03 08:33:51;;;;;;;22.40;5.95;;;25.10;72.40;;;;;;4994686;28;20045;-53
2021/03/03 08:36:18;;;;;;;30.03;6.67;;;25.10;72.60;;;;;;4993594;28;20031;-51
2021/03/03 08:38:47;;;;;;;14.30;5.75;;;25.10;75.70;;;;;;4982797;28;20497;-48
2021/03/03 08:41:17;;;;;;;23.35;6.90;;;25.10;72.90;;;;;;4993481;28;20033;-49
2021/03/03 08:43:50;;;;;;;12.70;6.60;;;25.00;68.50;;;;;;4989382;28;20018;-61
2021/03/03 08:46:20;;;;;;;15.38;7.82;;;24.90;68.30;;;;;;4992561;28;20030;-67
2021/03/03 08:49:07;;;;;;;16.20;10.23;;;24.70;62.40;;;;;;4990869;28;20030;-52
2021/03/03 08:51:42;;;;;;;16.25;11.10;;;24.60;65.00;;;;;;4990665;28;20086;-64
2021/03/03 08:54:14;;;;;;;15.43;5.97;;;24.50;64.20;;;;;;4989835;28;20519;-66
2021/03/03 08:56:52;;;;;;;12.35;6.82;;;24.50;65.10;;;;;;4993760;28;20050;-58
2021/03/03 08:59:55;;;;;;;17.08;5.07;;;24.40;63.90;;;;;;4990259;28;20552;-63
2021/03/03 09:02:26;;;;;;;11.32;3.85;;;24.30;63.20;;;;;;4933009;29;20036;-52
2021/03/03 09:04:55;;;;;;;11.70;3.33;;;24.30;63.10;;;;;;4980867;28;20053;-56
2021/03/03 09:07:23;;;;;;;7.22;2.50;;;24.20;62.00;;;;;;4993491;28;20268;-62
2021/03/03 09:10:01;;;;;;;12.23;3.78;;;24.10;62.90;;;;;;4992513;28;20392;-62
2021/03/03 09:12:30;;;;;;;12.50;3.30;;;24.10;63.30;;;;;;4990396;28;20093;-68
2021/03/03 09:15:01;;;;;;;11.63;3.22;;;24.00;62.60;;;;;;4989354;28;20081;-64
2021/03/03 09:17:34;;;;;;;11.55;2.78;;;24.00;63.10;;;;;;4992771;28;20030;-66
2021/03/03 09:20:12;;;;;;;14.50;3.13;;;24.10;63.50;;;;;;4992861;28;20031;-66
2021/03/03 09:22:47;;;;;;;12.00;4.10;;;24.00;64.20;;;;;;4991147;28;20097;-45
2021/03/03 09:25:19;;;;;;;10.25;3.58;;;24.00;63.00;;;;;;4989872;28;20123;-46
2021/03/03 09:27:51;;;;;;;8.68;2.45;;;23.90;63.40;;;;;;4991975;28;20034;-60
2021/03/03 09:30:20;;;;;;;11.88;2.60;;;23.90;64.70;;;;;;4992119;28;20026;-62
2021/03/03 09:32:48;;;;;;;12.20;2.80;;;23.90;64.30;;;;;;4992169;28;20535;-52
2021/03/03 09:35:18;;;;;;;8.48;2.45;;;23.80;63.80;;;;;;4990733;28;20031;-57
2021/03/03 09:37:47;;;;;;;12.45;2.85;;;23.80;63.50;;;;;;4992183;28;20421;-54
2021/03/03 09:40:18;;;;;;;11.60;3.03;;;23.80;63.70;;;;;;4991251;28;20029;-59
2021/03/03 09:42:50;;;;;;;11.40;2.83;;;23.90;64.50;;;;;;4992249;28;20034;-57
2021/03/03 09:45:22;;;;;;;6.03;2.30;;;23.90;64.30;;;;;;4991354;28;20821;-59
2021/03/03 09:47:51;;;;;;;7.65;2.05;;;23.90;64.40;;;;;;4991563;28;20054;-51
2021/03/03 09:50:25;;;;;;;12.32;3.13;;;23.90;64.10;;;;;;4991729;28;20037;-63
2021/03/03 09:52:55;;;;;;;20.10;2.90;;;23.90;64.80;;;;;;4988335;28;20053;-60
2021/03/03 09:55:25;;;;;;;8.60;2.40;;;23.90;65.20;;;;;;4989954;28;20488;-51
2021/03/03 09:57:55;;;;;;;12.68;2.70;;;23.90;64.70;;;;;;4993779;28;20424;-58
2021/03/03 10:00:28;;;;;;;10.75;2.67;;;23.90;64.40;;;;;;4991090;28;20030;-55
2021/03/03 10:03:01;;;;;;;16.25;2.10;;;23.90;64.50;;;;;;4989510;28;20018;-54
2021/03/03 10:05:31;;;;;;;8.27;2.45;;;24.00;64.40;;;;;;4990875;28;20108;-52
2021/03/03 10:08:06;;;;;;;7.40;2.47;;;24.00;64.40;;;;;;4992001;28;20022;-56
2021/03/03 10:10:36;;;;;;;10.48;3.13;;;24.00;64.30;;;;;;4990910;28;20489;-58
2021/03/03 10:13:05;;;;;;;13.38;2.40;;;24.00;64.30;;;;;;4987457;28;20093;-60
2021/03/03 10:15:38;;;;;;;9.13;2.75;;;24.00;64.20;;;;;;4991426;28;20507;-57
2021/03/03 10:18:12;;;;;;;7.30;3.00;;;24.00;64.50;;;;;;4991740;28;20030;-53
2021/03/03 10:20:43;;;;;;;11.18;3.17;;;24.00;64.40;;;;;;4992344;28;20027;-59
2021/03/03 10:23:14;;;;;;;7.30;2.10;;;24.00;64.50;;;;;;4987612;28;20062;-54
2021/03/03 10:25:48;;;;;;;6.90;2.47;;;24.00;64.40;;;;;;4990244;28;20035;-57
2021/03/03 10:28:26;;;;;;;8.15;2.20;;;24.00;64.40;;;;;;4990313;28;20039;-56
2021/03/03 10:30:55;;;;;;;7.78;3.00;;;24.00;64.60;;;;;;4990655;28;20384;-57
2021/03/03 10:33:29;;;;;;;9.88;2.80;;;24.00;64.60;;;;;;4984471;28;20040;-58
2021/03/03 10:35:58;;;;;;;13.18;3.10;;;24.00;64.60;;;;;;4993346;28;20034;-56
2021/03/03 10:38:28;;;;;;;7.38;2.20;;;24.00;64.80;;;;;;4991909;28;20019;-61
2021/03/03 10:41:01;;;;;;;5.32;1.80;;;24.00;64.70;;;;;;4989128;28;20519;-52
2021/03/03 10:43:29;;;;;;;11.30;2.63;;;24.00;64.80;;;;;;4989302;28;20057;-48
2021/03/03 10:46:10;;;;;;;15.65;2.97;;;24.00;64.90;;;;;;4991442;28;20109;-56
2021/03/03 10:48:38;;;;;;;8.70;2.60;;;24.00;64.80;;;;;;4990844;28;20045;-58
2021/03/03 10:51:10;;;;;;;5.38;1.90;;;24.00;64.80;;;;;;4991780;28;20030;-54
2021/03/03 10:54:00;;;;;;;6.05;2.05;;;24.00;65.00;;;;;;4987860;28;20492;-59
2021/03/03 10:56:35;;;;;;;5.50;2.05;;;24.00;64.80;;;;;;4989687;28;20034;-51
2021/03/03 10:59:07;;;;;;;4.82;1.98;;;24.00;64.80;;;;;;4993799;28;20030;-52
2021/03/03 11:01:52;;;;;;;;;;;24.00;64.70;;;;;;4992234;28;20035;-61
2021/03/03 11:04:19;;;;;;;6.15;2.00;;;24.00;64.80;;;;;;4988125;28;19906;-61
2021/03/03 11:06:47;;;;;;;8.43;2.03;;;23.90;64.80;;;;;;4990946;28;20046;-50
2021/03/03 11:09:18;;;;;;;7.50;1.92;;;23.90;64.90;;;;;;4989240;28;20436;-52
2021/03/03 11:11:55;;;;;;;7.57;2.20;;;23.90;64.80;;;;;;4990020;28;20027;-53
2021/03/03 11:14:23;;;;;;;5.60;1.77;;;24.00;64.80;;;;;;4987562;28;20053;-54
2021/03/03 11:16:52;;;;;;;7.63;2.40;;;23.90;64.80;;;;;;4991014;28;20022;-58
2021/03/03 11:19:20;;;;;;;8.50;2.20;;;23.90;64.90;;;;;;4991363;28;20027;-57
2021/03/03 11:21:48;;;;;;;8.35;2.47;;;23.90;64.90;;;;;;4989116;28;20405;-57
2021/03/03 11:24:15;;;;;;;5.50;2.20;;;23.90;64.80;;;;;;4989465;28;20477;-54
2021/03/03 11:26:47;;;;;;;8.63;1.98;;;23.90;65.10;;;;;;4991428;28;20035;-52
2021/03/03 11:29:16;;;;;;;5.53;2.28;;;23.90;65.10;;;;;;4989941;28;20158;-55
2021/03/03 11:31:44;;;;;;;4.00;1.80;;;23.90;65.00;;;;;;4990642;28;20022;-57
2021/03/03 11:34:12;;;;;;;7.85;2.38;;;23.90;65.00;;;;;;4990044;28;20129;-53
2021/03/03 11:36:40;;;;;;;7.35;1.95;;;23.90;65.00;;;;;;4990891;28;20533;-54
2021/03/03 11:39:09;;;;;;;3.67;1.67;;;23.90;64.90;;;;;;4989272;28;20030;-50
2021/03/03 11:41:37;;;;;;;6.65;2.10;;;23.90;64.80;;;;;;4989606;28;20381;-51
2021/03/03 11:44:05;;;;;;;5.80;2.45;;;23.90;64.90;;;;;;4987348;28;20544;-50
2021/03/03 11:46:34;;;;;;;10.40;2.15;;;23.90;64.80;;;;;;4994347;28;20053;-48
2021/03/03 11:49:02;;;;;;;4.28;1.60;;;23.90;64.80;;;;;;4999202;28;20035;-55
2021/03/03 11:51:29;;;;;;;9.20;2.13;;;23.90;64.90;;;;;;4989457;28;20069;-53
2021/03/03 11:53:57;;;;;;;7.85;2.05;;;23.90;64.90;;;;;;4985992;28;20106;-54
2021/03/03 11:56:24;;;;;;;5.45;1.90;;;23.90;64.90;;;;;;4990813;28;20030;-59
2021/03/03 11:58:52;;;;;;;9.57;2.47;;;23.90;64.90;;;;;;4990959;28;20068;-57
2021/03/03 12:01:19;;;;;;;4.80;1.92;;;23.90;64.70;;;;;;4993592;28;20449;-52
2021/03/03 12:03:46;;;;;;;5.82;1.75;;;23.90;64.70;;;;;;4984753;28;20037;-66
2021/03/03 12:06:14;;;;;;;5.57;1.80;;;23.90;64.80;;;;;;4994121;28;20073;-64
2021/03/03 12:08:41;;;;;;;8.15;2.35;;;23.90;64.90;;;;;;4990997;28;20080;-66
2021/03/03 12:11:09;;;;;;;3.88;1.48;;;23.80;64.80;;;;;;4992927;28;20104;-63
2021/03/03 12:13:36;;;;;;;3.70;1.60;;;23.90;64.90;;;;;;4986413;28;20084;-59
2021/03/03 12:16:04;;;;;;;7.72;1.92;;;23.90;64.90;;;;;;4990677;28;20026;-54
2021/03/03 12:18:31;;;;;;;6.72;2.05;;;23.80;64.70;;;;;;4993743;28;20080;-63
2021/03/03 12:21:00;;;;;;;3.88;1.63;;;23.90;64.80;;;;;;4994005;28;20511;-58
2021/03/03 12:23:28;;;;;;;5.38;1.90;;;23.80;64.80;;;;;;4989438;28;20077;-55
2021/03/03 12:25:55;;;;;;;4.22;1.58;;;23.90;64.80;;;;;;4993968;28;20072;-66
2021/03/03 12:28:23;;;;;;;4.07;1.80;;;23.80;64.70;;;;;;4993758;28;20030;-52
2021/03/03 12:30:51;;;;;;;9.75;1.85;;;23.80;64.70;;;;;;4992373;28;20019;-50
2021/03/03 12:33:19;;;;;;;2.25;1.00;;;23.80;64.60;;;;;;4988935;28;20050;-64
2021/03/03 12:35:47;;;;;;;4.85;1.85;;;23.80;64.60;;;;;;4993123;28;20023;-65
2021/03/03 12:38:14;;;;;;;6.78;1.88;;;23.80;64.70;;;;;;4993997;28;20038;-58
2021/03/03 12:40:43;;;;;;;5.20;2.13;;;23.80;64.60;;;;;;4993279;28;20049;-64
2021/03/03 12:43:10;;;;;;;7.13;1.92;;;23.70;64.50;;;;;;4986295;28;20031;-62
2021/03/03 12:45:38;;;;;;;5.30;1.70;;;23.80;64.60;;;;;;4993209;28;20492;-65
2021/03/03 12:48:06;;;;;;;3.42;2.03;;;23.70;64.50;;;;;;4993529;28;20081;-66
2021/03/03 12:50:34;;;;;;;4.82;1.65;;;23.70;64.50;;;;;;4995877;28;20040;-59
2021/03/03 12:53:01;;;;;;;4.03;1.73;;;23.70;64.60;;;;;;4990735;28;20031;-54
2021/03/03 12:55:29;;;;;;;4.75;1.55;;;23.70;64.50;;;;;;4994317;28;20027;-57
2021/03/03 12:57:56;;;;;;;4.80;1.70;;;23.70;64.60;;;;;;4993417;28;20045;-55
2021/03/03 13:00:24;;;;;;;4.47;1.60;;;23.70;64.60;;;;;;4993115;28;20027;-55